Time;durP1;ratioP1;P1;durP2;ratioP2;P2;SDS_P1;SDS_P2;PMS_P1;PMS_P2;Temp;Humidity;BMP_temperature;BMP_pressure;BME280_temperature;BME280_humidity;BME280_pressure;Samples;Min_cycle;Max_cycle;Signal;HPM_P1;HPM_P2
2022/05/04 00:01:42;;;;;;;;;28.00;25.50;;;;;16.06;85.06;101590.53;5037809;28;45499;-88
2022/05/04 00:04:07;;;;;;;;;25.00;23.00;;;;;16.05;85.73;101581.78;5039071;28;45452;-83
2022/05/04 00:06:33;;;;;;;;;22.25;22.00;;;;;16.05;85.34;101591.34;5040587;28;46151;-87
2022/05/04 00:08:59;;;;;;;;;28.50;24.00;;;;;16.07;86.00;101581.84;5041838;28;45395;-88
2022/05/04 00:11:24;;;;;;;;;28.25;25.00;;;;;16.04;86.41;101584.34;5042283;28;45455;-86
2022/05/04 00:13:50;;;;;;;;;25.25;24.00;;;;;16.08;85.75;101578.41;5023993;28;45391;-88
2022/05/04 00:16:16;;;;;;;;;31.75;24.50;;;;;16.09;86.05;101581.06;5043382;28;45955;-89
2022/05/04 00:18:41;;;;;;;;;27.75;20.25;;;;;16.06;86.21;101565.28;5041108;28;45189;-88
2022/05/04 00:21:07;;;;;;;;;29.25;24.50;;;;;16.06;85.68;101567.00;5041668;28;45249;-88
2022/05/04 00:23:33;;;;;;;;;24.75;24.00;;;;;16.09;85.20;101564.47;5025825;28;45641;-89
2022/05/04 00:25:59;;;;;;;;;28.50;25.75;;;;;16.13;85.09;101561.16;5041636;28;46095;-89
2022/05/04 00:28:25;;;;;;;;;28.50;25.75;;;;;16.12;85.17;101559.38;5041952;28;45288;-88
2022/05/04 00:30:52;;;;;;;;;25.75;24.50;;;;;16.14;85.31;101554.22;5042570;28;45200;-88
2022/05/04 00:33:18;;;;;;;;;25.25;22.25;;;;;16.16;85.17;101561.25;5042900;28;45466;-88
2022/05/04 00:35:44;;;;;;;;;19.50;18.00;;;;;16.16;84.52;101561.25;5041968;28;46013;-88
2022/05/04 00:38:09;;;;;;;;;28.25;22.75;;;;;16.17;84.68;101557.81;5042640;28;45346;-87
2022/05/04 00:40:35;;;;;;;;;27.00;24.75;;;;;16.17;84.34;101552.59;5042743;28;45491;-88
2022/05/04 00:43:00;;;;;;;;;33.50;29.25;;;;;16.16;84.22;101549.91;5042669;28;45334;-89
2022/05/04 00:45:26;;;;;;;;;27.00;24.00;;;;;16.11;84.75;101559.31;5025336;28;47146;-89
2022/05/04 00:47:52;;;;;;;;;29.00;27.50;;;;;16.04;84.98;101555.63;5041827;28;45421;-85
2022/05/04 00:50:18;;;;;;;;;31.50;27.50;;;;;16.01;84.74;101553.78;5041985;28;45356;-88
2022/05/04 00:52:45;;;;;;;;;29.25;24.50;;;;;15.97;84.66;101553.63;5041335;28;45159;-88
2022/05/04 00:55:13;;;;;;;;;30.25;25.00;;;;;15.95;85.47;101558.78;5041006;28;45258;-88
2022/05/04 01:00:27;;;;;;;;;31.50;27.25;;;;;15.89;86.38;101569.03;5040083;28;45340;-89
2022/05/04 01:02:53;;;;;;;;;29.75;26.00;;;;;15.88;85.77;101567.25;5040780;28;45224;-88
2022/05/04 01:05:18;;;;;;;;;26.00;22.00;;;;;15.86;85.80;101569.81;5041554;28;45416;-87
2022/05/04 01:07:46;;;;;;;;;24.50;19.50;;;;;15.86;86.33;101571.53;5040864;28;45262;-89
2022/05/04 01:10:14;;;;;;;;;26.00;22.50;;;;;15.89;86.35;101574.25;5040797;28;45846;-88
2022/05/04 01:12:49;;;;;;;;;28.00;23.25;;;;;15.87;86.00;101563.78;5040715;28;45343;-87
2022/05/04 01:15:16;;;;;;;;;25.75;24.00;;;;;15.86;85.81;101566.31;5040470;28;45510;-89
2022/05/04 01:17:42;;;;;;;;;32.00;24.50;;;;;15.84;85.50;101563.66;5042139;28;45291;-89
2022/05/04 01:20:08;;;;;;;;;24.75;24.75;;;;;15.77;86.03;101566.81;5042402;28;45341;-82
2022/05/04 01:22:35;;;;;;;;;32.00;23.75;;;;;15.70;86.75;101554.41;5041553;28;45266;-88
2022/05/04 01:25:03;;;;;;;;;25.25;21.25;;;;;15.72;86.12;101560.56;5040544;28;45468;-83
2022/05/04 01:27:29;;;;;;;;;31.25;23.50;;;;;15.73;86.62;101563.22;5038921;28;45351;-83
2022/05/04 01:29:54;;;;;;;;;30.00;26.50;;;;;15.70;86.66;101562.22;5038201;28;45303;-84
2022/05/04 01:32:20;;;;;;;;;23.25;21.25;;;;;15.65;86.92;101564.69;5039099;28;45539;-84
2022/05/04 01:34:46;;;;;;;;;36.00;28.25;;;;;15.65;87.16;101563.81;5020316;28;46725;-82
2022/05/04 01:37:11;;;;;;;;;27.25;25.75;;;;;15.58;87.51;101567.91;5038001;28;45205;-82
2022/05/04 01:39:37;;;;;;;;;24.00;22.50;;;;;15.58;87.05;101566.16;5038879;28;45352;-82
2022/05/04 01:42:03;;;;;;;;;34.75;26.50;;;;;15.57;87.59;101568.75;5038835;28;45216;-83
2022/05/04 01:44:30;;;;;;;;;28.75;24.50;;;;;15.55;88.10;101565.19;5038076;28;45228;-82
2022/05/04 01:46:55;;;;;;;;;28.00;22.75;;;;;15.57;88.56;101572.22;5038619;28;45849;-88
2022/05/04 01:49:21;;;;;;;;;25.00;21.25;;;;;15.57;88.49;101572.22;5039943;28;45415;-88
2022/05/04 01:51:47;;;;;;;;;34.75;25.50;;;;;15.50;87.86;101559.78;5040199;28;45542;-88
2022/05/04 01:54:12;;;;;;;;;26.50;25.75;;;;;15.50;89.71;101571.94;5039598;28;46055;-88
2022/05/04 01:56:38;;;;;;;;;28.50;26.00;;;;;15.42;90.15;101564.72;5021339;28;45347;-86
2022/05/04 01:59:04;;;;;;;;;32.00;29.25;;;;;15.35;90.07;101562.72;5043005;28;45382;-87
2022/05/04 02:01:29;;;;;;;;;29.75;27.25;;;;;15.36;90.07;101572.34;5046091;28;45273;-89
2022/05/04 02:03:55;;;;;;;;;22.50;20.50;;;;;15.38;90.79;101567.16;5041381;28;46021;-88
2022/05/04 02:06:21;;;;;;;;;27.50;24.50;;;;;15.38;91.09;101565.47;5039695;28;45383;-88
2022/05/04 02:08:47;;;;;;;;;24.50;21.50;;;;;15.36;90.53;101566.22;5039365;28;45308;-88
2022/05/04 02:11:12;;;;;;;;;25.25;23.00;;;;;15.34;90.19;101574.00;5040557;28;45445;-88
2022/05/04 02:13:38;;;;;;;;;30.00;26.25;;;;;15.35;89.88;101573.16;5023695;28;46963;-84
2022/05/04 02:16:05;;;;;;;;;27.25;25.25;;;;;15.32;90.77;101573.03;5040282;28;45297;-87
2022/05/04 02:18:32;;;;;;;;;29.50;25.00;;;;;15.22;90.39;101561.38;5040007;28;45300;-88
2022/05/04 02:20:58;;;;;;;;;32.75;28.00;;;;;15.21;90.96;101562.22;5039645;28;45673;-88
2022/05/04 02:23:24;;;;;;;;;29.00;25.25;;;;;15.15;90.86;101557.66;5039036;28;45447;-88
2022/05/04 02:25:49;;;;;;;;;26.00;24.00;;;;;15.12;91.83;101560.13;5040431;28;45460;-87
2022/05/04 02:28:15;;;;;;;;;29.50;25.25;;;;;15.14;91.63;101558.47;5043726;28;45378;-88
2022/05/04 02:30:40;;;;;;;;;26.00;23.75;;;;;15.12;91.79;101554.91;5040098;28;45486;-88
2022/05/04 02:33:06;;;;;;;;;30.00;26.75;;;;;15.14;91.46;101558.47;5040344;28;45566;-88
2022/05/04 02:38:16;;;;;;;;;31.00;28.25;;;;;15.07;91.76;101558.19;5039575;28;45316;-89
2022/05/04 02:40:41;;;;;;;;;35.00;31.50;;;;;15.05;91.79;101559.84;5041174;28;45320;-88
2022/05/04 02:43:07;;;;;;;;;30.00;26.25;;;;;15.03;92.15;101559.78;5041041;28;45939;-89
2022/05/04 02:45:34;;;;;;;;;33.50;28.75;;;;;14.95;91.75;101556.88;5040668;28;45350;-89
2022/05/04 02:47:59;;;;;;;;;33.00;28.50;;;;;14.89;93.40;101546.22;5039774;28;45332;-87
2022/05/04 02:50:25;;;;;;;;;32.25;30.00;;;;;14.84;92.94;101548.66;5039144;28;45404;-88
2022/05/04 02:52:51;;;;;;;;;28.50;25.75;;;;;14.80;92.64;101549.34;5040805;28;45661;-87
2022/05/04 02:55:16;;;;;;;;;32.00;22.50;;;;;14.80;94.39;101551.97;5039687;28;45421;-88
2022/05/04 02:57:42;;;;;;;;;38.25;32.00;;;;;14.76;93.65;101543.97;5040531;28;45259;-88
2022/05/04 03:00:08;;;;;;;;;27.25;25.25;;;;;14.73;94.83;101549.94;5049546;28;45434;-82
2022/05/04 03:02:34;;;;;;;;;25.25;23.00;;;;;14.73;94.42;101554.25;5061381;28;45208;-87
2022/05/04 03:05:02;;;;;;;;;34.50;29.75;;;;;14.68;95.13;101552.38;5045240;28;45311;-88
2022/05/04 03:07:28;;;;;;;;;32.50;28.25;;;;;14.67;95.07;101547.09;5044537;28;45240;-88
2022/05/04 03:09:55;;;;;;;;;29.00;27.75;;;;;14.64;94.58;101549.53;5052709;28;45304;-88
2022/05/04 03:12:21;;;;;;;;;33.75;27.75;;;;;14.63;94.77;101546.03;5041000;28;46488;-88
2022/05/04 03:14:46;;;;;;;;;29.25;25.75;;;;;14.66;95.62;101537.44;5039813;28;45462;-88
2022/05/04 03:17:12;;;;;;;;;29.25;25.75;;;;;14.63;94.72;101525.19;5039228;28;45302;-88
2022/05/04 03:19:38;;;;;;;;;36.00;30.75;;;;;14.60;95.40;101547.63;5039562;28;45435;-81
2022/05/04 03:22:04;;;;;;;;;28.25;24.50;;;;;14.57;95.40;101547.50;5041750;28;45989;-88
2022/05/04 03:24:29;;;;;;;;;33.50;29.25;;;;;14.52;95.26;101536.91;5040978;28;45430;-87
2022/05/04 03:26:55;;;;;;;;;27.75;26.75;;;;;14.51;95.75;101549.06;5040460;28;45450;-88
2022/05/04 03:29:21;;;;;;;;;31.75;28.75;;;;;14.49;97.05;101542.88;5041146;28;45502;-88
2022/05/04 03:31:46;;;;;;;;;29.25;26.25;;;;;14.51;96.67;101542.94;5040695;28;46051;-88
2022/05/04 03:34:12;;;;;;;;;29.50;26.50;;;;;14.57;95.98;101543.19;5039622;28;45337;-88
2022/05/04 03:36:38;;;;;;;;;32.50;30.00;;;;;14.60;95.92;101542.44;5038633;28;45383;-83
2022/05/04 03:39:06;;;;;;;;;30.00;27.00;;;;;14.60;95.48;101543.31;5040171;28;44739;-88
2022/05/04 03:41:31;;;;;;;;;34.00;30.00;;;;;14.63;95.35;101534.75;5037710;28;45481;-88
2022/05/04 03:43:58;;;;;;;;;29.75;27.00;;;;;14.60;94.98;101538.09;5038182;28;45286;-87
2022/05/04 03:46:26;;;;;;;;;29.25;26.50;;;;;14.60;95.40;101540.69;5040077;28;45318;-88
2022/05/04 03:48:57;;;;;;;;;30.50;29.00;;;;;14.62;95.60;101540.78;5042251;28;45537;-88
2022/05/04 03:51:23;;;;;;;;;36.00;30.00;;;;;14.62;94.26;101535.56;5038095;28;45803;-88
2022/05/04 03:53:50;;;;;;;;;30.25;28.50;;;;;14.61;95.39;101534.66;5037355;28;45368;-87
2022/05/04 03:56:17;;;;;;;;;35.75;30.00;;;;;14.57;95.05;101534.47;5037717;28;45342;-88
2022/05/04 03:58:43;;;;;;;;;34.25;28.50;;;;;14.52;95.03;101529.97;5037414;28;45507;-88
2022/05/04 04:01:09;;;;;;;;;32.00;30.00;;;;;14.51;95.36;101537.72;5037986;28;46242;-87
2022/05/04 04:03:35;;;;;;;;;35.75;30.00;;;;;14.48;95.24;101521.97;5039845;28;45795;-88
2022/05/04 04:06:01;;;;;;;;;31.50;25.75;;;;;14.47;95.61;101528.91;5037750;28;45332;-88
2022/05/04 04:08:27;;;;;;;;;29.75;27.50;;;;;14.39;94.69;101527.72;5037869;28;45573;-89
2022/05/04 04:10:53;;;;;;;;;31.25;28.25;;;;;14.34;95.09;101527.53;5037943;28;45695;-89
2022/05/04 04:13:19;;;;;;;;;32.75;30.75;;;;;14.32;96.80;101528.25;5041760;28;45441;-87
2022/05/04 04:15:46;;;;;;;;;31.00;28.25;;;;;14.29;95.82;101533.38;5038121;28;45285;-88
2022/05/04 04:18:11;;;;;;;;;34.50;28.50;;;;;14.26;96.97;101525.41;5040790;28;45335;-88
2022/05/04 04:23:22;;;;;;;;;31.50;27.75;;;;;14.20;97.20;101539.94;5036009;28;45949;-84
2022/05/04 04:25:47;;;;;;;;;36.50;28.75;;;;;14.18;97.32;101539.03;5036313;28;45329;-82
2022/05/04 04:28:13;;;;;;;;;30.00;25.75;;;;;14.16;96.23;101543.28;5039471;28;45237;-83
2022/05/04 04:30:39;;;;;;;;;33.00;27.50;;;;;14.14;97.68;101544.91;5039696;28;45357;-88
2022/05/04 04:33:06;;;;;;;;;31.25;28.50;;;;;14.21;97.12;101535.66;5037297;28;45165;-83
2022/05/04 04:35:33;;;;;;;;;31.50;29.75;;;;;14.21;96.58;101546.94;5036433;28;45375;-86
2022/05/04 04:37:59;;;;;;;;;29.50;24.00;;;;;14.24;96.61;101544.47;5037284;28;45276;-87
2022/05/04 04:40:25;;;;;;;;;32.50;30.00;;;;;14.26;96.06;101541.94;5036772;28;45402;-87
2022/05/04 04:42:51;;;;;;;;;30.25;28.25;;;;;14.26;96.03;101549.75;5035819;28;45407;-82
2022/05/04 04:45:17;;;;;;;;;32.00;30.00;;;;;14.25;95.79;101545.38;5036108;28;45387;-83
2022/05/04 04:47:46;;;;;;;;;33.00;28.25;;;;;14.19;95.63;101539.91;5035874;28;45237;-83
2022/05/04 04:50:12;;;;;;;;;31.25;28.00;;;;;14.19;95.84;101547.72;5036199;28;45553;-84
2022/05/04 04:52:38;;;;;;;;;30.50;26.00;;;;;14.16;95.95;101548.47;5039869;28;45400;-86
2022/05/04 04:55:05;;;;;;;;;38.50;30.00;;;;;14.11;96.04;101547.38;5041097;28;45371;-87
2022/05/04 04:57:30;;;;;;;;;27.75;27.25;;;;;14.14;96.37;101554.47;5041393;28;45642;-87
2022/05/04 04:59:56;;;;;;;;;30.50;27.25;;;;;14.14;95.49;101555.34;5040303;28;46027;-88
2022/05/04 05:02:21;;;;;;;;;33.75;28.25;;;;;14.14;95.14;101564.88;5040201;28;45386;-88
2022/05/04 05:04:47;;;;;;;;;32.25;28.00;;;;;14.08;96.29;101563.78;5040214;28;45360;-87
2022/05/04 05:07:12;;;;;;;;;33.25;27.50;;;;;14.07;95.28;101562.00;5040133;28;45580;-86
2022/05/04 05:09:38;;;;;;;;;30.00;27.75;;;;;14.03;96.21;101557.50;5039978;28;45338;-85
2022/05/04 05:12:04;;;;;;;;;36.75;31.50;;;;;14.09;95.66;101554.28;5039894;28;45362;-87
2022/05/04 05:17:14;;;;;;;;;38.25;29.50;;;;;14.09;95.53;101560.34;5040387;28;45240;-86
2022/05/04 05:19:39;;;;;;;;;32.75;28.50;;;;;14.06;95.47;101560.22;5023237;28;46926;-87
2022/05/04 05:22:05;;;;;;;;;40.00;32.00;;;;;14.14;95.39;101567.47;5040255;28;46076;-88
2022/05/04 05:24:30;;;;;;;;;28.00;24.75;;;;;14.15;94.82;101564.03;5040627;28;45209;-87
2022/05/04 05:26:56;;;;;;;;;32.00;27.75;;;;;14.15;94.52;101561.41;5040080;28;45258;-88
2022/05/04 05:29:22;;;;;;;;;28.25;26.00;;;;;14.13;95.05;101556.16;5039653;28;46045;-87
2022/05/04 05:31:47;;;;;;;;;34.25;30.25;;;;;14.17;94.25;101558.09;5039151;28;45359;-87
2022/05/04 05:34:13;;;;;;;;;30.50;29.00;;;;;14.18;94.93;101570.28;5039695;28;45349;-87
2022/05/04 05:36:39;;;;;;;;;31.75;23.75;;;;;14.25;94.03;101574.03;5039989;28;45510;-81
2022/05/04 05:39:05;;;;;;;;;27.25;23.75;;;;;14.30;93.72;101579.44;5039693;28;45438;-88
2022/05/04 05:41:31;;;;;;;;;26.75;24.75;;;;;14.33;93.14;101579.53;5043543;28;45465;-87
2022/05/04 05:43:56;;;;;;;;;34.75;27.75;;;;;14.29;93.03;101570.72;5039639;28;45418;-87
2022/05/04 05:46:22;;;;;;;;;31.25;29.00;;;;;14.34;93.02;101569.22;5040043;28;45355;-88
2022/05/04 05:48:48;;;;;;;;;31.50;27.75;;;;;14.41;93.04;101575.56;5039417;28;46413;-87
2022/05/04 05:51:13;;;;;;;;;30.50;28.50;;;;;14.53;92.74;101577.78;5039294;28;45428;-87
2022/05/04 05:53:39;;;;;;;;;28.50;23.00;;;;;14.50;91.40;101583.75;5041000;28;45236;-83
2022/05/04 05:56:06;;;;;;;;;33.75;27.50;;;;;14.40;91.26;101585.06;5040202;28;45419;-90
2022/05/04 05:58:32;;;;;;;;;32.00;29.00;;;;;14.32;91.40;101577.75;5041831;28;45462;-89
2022/05/04 06:00:58;;;;;;;;;31.50;27.00;;;;;14.31;92.28;101587.31;5040667;28;45823;-88
2022/05/04 06:03:24;;;;;;;;;31.75;27.25;;;;;14.33;92.26;101580.44;5039314;28;45328;-88
2022/05/04 06:05:49;;;;;;;;;30.50;28.75;;;;;14.27;91.93;101584.50;5051433;28;45154;-82
2022/05/04 06:08:15;;;;;;;;;31.50;27.50;;;;;14.31;92.12;101583.78;5050166;28;45820;-83
2022/05/04 06:10:42;;;;;;;;;33.00;28.25;;;;;14.37;92.18;101577.13;5062430;28;44739;-84
2022/05/04 06:13:08;;;;;;;;;28.75;27.25;;;;;14.45;91.25;101576.56;5059359;28;44735;-86
2022/05/04 06:15:34;;;;;;;;;43.00;30.00;;;;;14.51;90.36;101589.84;5051455;28;45201;-89
2022/05/04 06:18:01;;;;;;;;;26.00;22.25;;;;;14.52;90.47;101591.63;5043450;28;46129;-89
2022/05/04 06:20:27;;;;;;;;;32.75;28.00;;;;;14.49;90.14;101583.66;5044215;28;45203;-89
2022/05/04 06:22:53;;;;;;;;;34.25;29.25;;;;;14.47;90.95;101593.16;5025722;28;45487;-88
2022/05/04 06:25:19;;;;;;;;;32.50;29.75;;;;;14.42;91.42;101600.75;5041795;28;45542;-88
2022/05/04 06:27:45;;;;;;;;;34.00;29.50;;;;;14.42;91.68;101602.50;5040583;28;46455;-87
2022/05/04 06:35:39;;;;;;;;;34.50;27.50;;;;;14.34;91.25;101603.06;5041464;28;45390;-87
2022/05/04 06:38:05;;;;;;;;;33.00;28.00;;;;;14.34;91.80;101616.09;5043655;28;45827;-88
2022/05/04 06:40:31;;;;;;;;;38.50;31.75;;;;;14.35;91.79;101611.75;5041901;28;45442;-89
2022/05/04 06:42:57;;;;;;;;;34.50;27.25;;;;;14.33;91.65;101602.97;5041950;28;44693;-91
2022/05/04 06:45:23;;;;;;;;;29.25;27.25;;;;;14.35;91.59;101597.03;5041783;28;45193;-88
2022/05/04 06:47:49;;;;;;;;;34.50;32.00;;;;;14.37;91.88;101605.78;5040780;28;46295;-90
2022/05/04 06:50:15;;;;;;;;;38.00;30.00;;;;;14.42;91.71;101602.50;5039994;28;45266;-87
2022/05/04 06:52:41;;;;;;;;;36.50;31.50;;;;;14.44;91.26;101593.91;5040415;28;45319;-81
2022/05/04 06:55:08;;;;;;;;;31.75;26.00;;;;;14.46;91.44;101592.25;5040372;28;45614;-86
2022/05/04 06:57:34;;;;;;;;;36.50;30.25;;;;;14.48;90.64;101589.69;5038289;28;46536;-85
2022/05/04 07:00:04;;;;;;;;;35.75;29.25;;;;;14.52;90.91;101591.63;5036911;28;45399;-82
2022/05/04 07:02:31;;;;;;;;;34.50;28.25;;;;;14.58;90.60;101599.69;5049208;28;45300;-88
2022/05/04 07:04:56;;;;;;;;;33.75;31.00;;;;;14.64;90.42;101599.94;5039389;28;45268;-87
2022/05/04 07:07:22;;;;;;;;;38.75;33.00;;;;;14.70;89.99;101594.13;5038587;28;46179;-87
2022/05/04 07:09:47;;;;;;;;;33.50;28.75;;;;;14.80;89.32;101604.09;5038944;28;45423;-88
2022/05/04 07:12:13;;;;;;;;;34.50;30.25;;;;;14.84;88.25;101606.00;5038790;28;45433;-88
2022/05/04 07:14:38;;;;;;;;;34.00;31.00;;;;;14.90;88.25;101612.28;5039744;28;45249;-87
2022/05/04 07:17:04;;;;;;;;;34.75;29.75;;;;;14.93;88.31;101609.81;5039184;28;45649;-90
2022/05/04 07:19:30;;;;;;;;;34.00;26.00;;;;;14.96;87.97;101609.91;5038393;28;45304;-88
2022/05/04 07:21:56;;;;;;;;;29.25;27.50;;;;;15.02;88.49;101612.78;5037928;28;45360;-89
2022/05/04 07:24:21;;;;;;;;;42.50;32.00;;;;;15.05;87.80;101597.25;5038590;28;45597;-87
2022/05/04 07:26:47;;;;;;;;;35.50;26.50;;;;;15.11;86.81;101604.44;5037595;28;45549;-85
2022/05/04 07:29:12;;;;;;;;;35.75;31.00;;;;;15.10;86.93;101608.75;5036856;28;45452;-81
2022/05/04 07:31:38;;;;;;;;;31.00;29.50;;;;;15.12;87.26;101617.53;5019426;28;45267;-81
2022/05/04 07:34:04;;;;;;;;;36.25;29.50;;;;;15.18;87.27;101609.03;5036835;28;45533;-82
2022/05/04 07:36:29;;;;;;;;;36.75;32.00;;;;;15.23;86.35;101617.03;5036820;28;45438;-83
2022/05/04 07:38:56;;;;;;;;;37.25;30.00;;;;;15.18;85.96;101619.47;5018675;28;45304;-83
2022/05/04 07:44:06;;;;;;;;;31.50;29.75;;;;;15.11;86.84;101620.09;5037894;28;45309;-88
2022/05/04 07:46:33;;;;;;;;;43.75;35.00;;;;;15.08;87.06;101618.22;5038626;28;45312;-88
2022/05/04 07:49:00;;;;;;;;;44.00;34.00;;;;;15.09;87.76;101632.16;5038400;28;45300;-88
2022/05/04 07:51:25;;;;;;;;;36.25;32.25;;;;;15.08;87.91;101631.25;5039244;28;45348;-89
2022/05/04 07:53:51;;;;;;;;;36.25;29.75;;;;;15.13;88.19;101636.66;5038638;28;45558;-88
2022/05/04 07:56:16;;;;;;;;;38.00;32.50;;;;;15.15;88.15;101627.19;5039166;28;45514;-87
2022/05/04 07:58:42;;;;;;;;;41.50;30.50;;;;;15.21;87.66;101627.44;5040024;28;45738;-89
2022/05/04 08:06:36;;;;;;;;;45.75;32.75;;;;;15.16;87.89;101626.34;5040981;28;45364;-86
2022/05/04 08:09:02;;;;;;;;;32.75;29.25;;;;;15.21;87.48;101622.22;5045611;28;45442;-87
2022/05/04 08:11:27;;;;;;;;;32.50;29.25;;;;;15.22;87.48;101625.69;5039670;28;45260;-85
2022/05/04 08:13:53;;;;;;;;;36.75;30.00;;;;;15.26;87.13;101625.00;5037004;28;45382;-86
2022/05/04 08:16:19;;;;;;;;;34.25;31.50;;;;;15.32;86.73;101617.41;5038235;28;45163;-88
2022/05/04 08:18:44;;;;;;;;;41.25;32.50;;;;;15.38;86.62;101619.34;5038428;28;45245;-88
2022/05/04 08:21:10;;;;;;;;;37.50;33.00;;;;;15.43;85.94;101626.53;5021229;28;45416;-89
2022/05/04 08:23:36;;;;;;;;;43.00;31.75;;;;;15.48;85.70;101642.34;5039944;28;45259;-88
2022/05/04 08:26:02;;;;;;;;;38.50;33.00;;;;;15.55;85.67;101643.47;5038266;28;45808;-88
2022/05/04 08:28:29;;;;;;;;;33.50;28.75;;;;;15.57;85.23;101644.44;5043102;28;45846;-87
2022/05/04 08:30:55;;;;;;;;;38.75;31.50;;;;;15.62;84.63;101640.25;5040697;28;45339;-86
2022/05/04 08:33:21;;;;;;;;;33.00;30.00;;;;;15.67;84.31;101649.16;5041356;28;45372;-88
2022/05/04 08:35:47;;;;;;;;;24.00;20.00;;;;;15.69;84.43;101646.59;5040348;28;45443;-87
2022/05/04 08:38:13;;;;;;;;;36.00;32.00;;;;;15.70;83.41;101643.16;5024269;28;45240;-89
2022/05/04 08:40:39;;;;;;;;;36.50;30.50;;;;;15.75;84.09;101645.09;5043397;28;45231;-87
2022/05/04 08:43:07;;;;;;;;;35.75;30.25;;;;;15.83;83.22;101642.78;5041446;28;45526;-87
2022/05/04 08:45:40;;;;;;;;;35.50;30.25;;;;;15.90;82.83;101643.94;5040753;28;45472;-89
2022/05/04 08:48:08;;;;;;;;;37.25;31.75;;;;;15.92;82.45;101648.38;5040583;28;45350;-88
2022/05/04 08:50:34;;;;;;;;;37.00;30.00;;;;;15.94;81.97;101635.34;5041004;28;45367;-89
2022/05/04 08:53:02;;;;;;;;;43.75;34.00;;;;;16.00;81.95;101648.66;5041168;28;45287;-89
2022/05/04 08:55:28;;;;;;;;;41.75;33.25;;;;;15.94;82.40;101641.50;5041648;28;46226;-89
2022/05/04 08:57:54;;;;;;;;;35.25;28.75;;;;;16.01;82.40;101644.31;5042345;28;46008;-90
2022/05/04 09:00:21;;;;;;;;;39.75;33.00;;;;;16.02;82.17;101660.06;5041711;28;45333;-89
2022/05/04 09:02:46;;;;;;;;;39.00;32.50;;;;;16.02;82.11;101643.47;5041634;28;45430;-89
2022/05/04 09:05:26;;;;;;;;;39.00;33.25;;;;;16.04;82.34;101644.44;5024695;28;47421;-87
2022/05/04 09:07:54;;;;;;;;;34.50;29.50;;;;;16.11;82.35;101648.16;5041969;28;45196;-89
2022/05/04 09:10:24;;;;;;;;;38.25;31.25;;;;;16.21;82.26;101647.63;5041612;28;45352;-89
2022/05/04 09:12:52;;;;;;;;;39.00;34.00;;;;;16.28;81.68;101649.63;5042611;28;45875;-83
2022/05/04 09:15:29;;;;;;;;;35.25;32.25;;;;;16.30;81.91;101645.34;5041485;28;46348;-87
2022/05/04 09:18:06;;;;;;;;;36.00;31.50;;;;;16.36;81.48;101647.28;5042136;28;45241;-90
2022/05/04 09:20:49;;;;;;;;;41.25;34.25;;;;;16.37;81.40;101651.66;5042736;28;45638;-90
2022/05/04 09:23:32;;;;;;;;;42.50;32.75;;;;;16.37;81.30;101652.53;5048751;28;45640;-85
2022/05/04 09:26:01;;;;;;;;;43.75;34.00;;;;;16.32;81.28;101655.84;5037446;28;46967;-87
2022/05/04 09:28:28;;;;;;;;;42.00;33.00;;;;;16.20;81.94;101641.50;5055002;28;45264;-87
2022/05/04 09:31:00;;;;;;;;;43.25;35.25;;;;;16.21;82.76;101651.13;5029887;28;45470;-86
2022/05/04 09:33:32;;;;;;;;;39.00;33.50;;;;;16.20;82.73;101641.50;5054506;28;45248;-87
2022/05/04 09:35:59;;;;;;;;;37.75;31.50;;;;;16.15;83.26;101639.56;5052028;28;46999;-88
2022/05/04 09:46:51;;;;;;;;;45.00;35.75;;;;;16.02;84.58;101630.41;5050018;28;45328;-83
2022/05/04 09:49:18;;;;;;;;;44.50;34.50;;;;;15.99;85.25;101631.19;5035836;28;46108;-86
2022/05/04 09:51:50;;;;;;;;;39.50;34.25;;;;;15.96;84.92;101627.59;5056144;28;45544;-88
2022/05/04 09:54:27;;;;;;;;;44.50;34.75;;;;;15.93;84.52;101623.13;5053117;28;45253;-89
2022/05/04 09:56:56;;;;;;;;;39.50;32.25;;;;;15.93;84.24;101626.66;5043455;28;45342;-88
2022/05/04 09:59:25;;;;;;;;;33.25;31.00;;;;;15.91;84.48;101623.09;5041857;28;45300;-88
2022/05/04 10:01:52;;;;;;;;;44.00;32.25;;;;;15.92;84.42;101619.66;5041324;28;45205;-85
2022/05/04 10:04:20;;;;;;;;;43.75;36.00;;;;;15.90;84.64;101617.81;5041663;28;45545;-86
2022/05/04 10:06:48;;;;;;;;;39.50;31.50;;;;;15.94;84.44;101611.84;5040989;28;46170;-87
2022/05/04 10:09:13;;;;;;;;;35.00;32.75;;;;;15.98;84.54;101618.97;5040525;28;45751;-87
2022/05/04 10:11:39;;;;;;;;;34.75;32.25;;;;;16.02;84.23;101618.25;5039255;28;45258;-84
2022/05/04 10:14:09;;;;;;;;;32.25;29.75;;;;;16.07;84.08;101613.19;5039056;28;45443;-82
2022/05/04 10:16:42;;;;;;;;;32.50;28.00;;;;;16.15;83.42;101622.19;5041228;28;45902;-82
2022/05/04 10:19:17;;;;;;;;;29.50;27.25;;;;;16.20;83.15;101619.72;5040658;28;45864;-87
2022/05/04 10:21:44;;;;;;;;;39.75;29.25;;;;;16.25;83.54;101619.06;5040777;28;44940;-86
2022/05/04 10:24:11;;;;;;;;;29.00;27.75;;;;;16.32;82.65;101616.63;5040413;28;45349;-88
2022/05/04 10:26:39;;;;;;;;;33.25;29.25;;;;;16.37;82.45;101618.56;5042465;28;46134;-87
2022/05/04 10:32:33;;;;;;;;;33.50;25.50;;;;;16.57;81.35;101615.75;5041068;28;45219;-85
2022/05/04 10:35:08;;;;;;;;;17.50;15.25;;;;;16.65;77.12;101606.44;5039555;28;45354;-83
2022/05/04 10:37:34;;;;;;;;;20.00;18.75;;;;;16.74;74.11;101615.41;5039762;28;45465;-87
2022/05/04 10:40:06;;;;;;;;;17.00;14.25;;;;;16.84;72.28;101627.94;5039314;28;45435;-86
2022/05/04 10:42:57;;;;;;;;;19.75;17.25;;;;;16.92;71.49;101621.22;5038944;28;45239;-88
2022/05/04 10:45:37;;;;;;;;;18.00;17.25;;;;;17.00;72.02;101625.03;5040987;28;45318;-89
2022/05/04 10:48:22;;;;;;;;;24.00;17.50;;;;;17.10;72.07;101625.31;5022054;28;46320;-88
2022/05/04 10:50:55;;;;;;;;;19.75;17.75;;;;;17.18;69.57;101610.72;5038944;28;45406;-89
2022/05/04 10:53:23;;;;;;;;;20.00;17.00;;;;;17.30;69.26;101621.56;5039574;28;45291;-88
2022/05/04 10:56:01;;;;;;;;;17.50;14.25;;;;;17.40;68.69;101621.84;5039884;28;45563;-87
2022/05/04 10:58:37;;;;;;;;;14.75;12.75;;;;;17.44;66.97;101616.72;5039110;28;45539;-88
2022/05/04 11:01:04;;;;;;;;;13.50;13.25;;;;;17.46;65.63;101615.06;5038338;28;45232;-87
2022/05/04 11:03:38;;;;;;;;;16.00;14.00;;;;;17.53;65.51;101623.06;5038665;28;45418;-86
2022/05/04 11:06:08;;;;;;;;;17.00;13.75;;;;;17.54;67.08;101617.91;5039704;28;45337;-86
2022/05/04 11:08:35;;;;;;;;;15.75;14.50;;;;;17.58;65.90;101624.97;5021707;28;46836;-89
2022/05/04 11:11:02;;;;;;;;;13.25;13.25;;;;;17.62;66.60;101616.38;5041622;28;45469;-89
2022/05/04 11:13:30;;;;;;;;;14.25;13.25;;;;;17.68;66.72;101606.91;5041697;28;45286;-88
2022/05/04 11:16:00;;;;;;;;;18.25;14.50;;;;;17.69;67.01;101608.69;5041173;28;45342;-88
2022/05/04 11:18:27;;;;;;;;;16.00;13.50;;;;;17.72;67.30;101606.16;5038725;28;45503;-88
2022/05/04 11:20:54;;;;;;;;;17.00;14.50;;;;;17.76;66.53;101601.06;5038216;28;45347;-88
2022/05/04 11:23:25;;;;;;;;;16.25;12.25;;;;;17.86;65.82;101598.69;5037740;28;45446;-81
2022/05/04 11:25:52;;;;;;;;;16.25;11.25;;;;;17.92;64.34;101601.50;5019798;28;45313;-86
2022/05/04 11:28:20;;;;;;;;;11.50;10.25;;;;;17.93;64.60;101592.75;5038207;28;45349;-86
2022/05/04 11:30:45;;;;;;;;;14.75;12.00;;;;;18.01;64.72;101593.00;5038136;28;45761;-84
2022/05/04 11:33:15;;;;;;;;;12.00;11.75;;;;;18.07;62.93;101596.69;5040603;28;45360;-87
2022/05/04 11:35:43;;;;;;;;;9.75;8.25;;;;;18.17;62.31;101595.19;5042065;28;45351;-88
2022/05/04 11:38:19;;;;;;;;;4.75;4.50;;;;;18.29;63.03;101598.97;5040923;28;47989;-89
2022/05/04 11:40:50;;;;;;;;;8.75;8.50;;;;;18.41;61.40;101597.56;5027222;28;45687;-88
2022/05/04 11:43:22;;;;;;;;;12.00;8.50;;;;;18.51;61.20;101588.19;5043223;28;44757;-89
2022/05/04 11:45:49;;;;;;;;;8.75;8.75;;;;;18.64;61.35;101580.59;5043754;28;45432;-87